createdAt,value
2018-03-04T00:04:11.307Z,62.74
2018-03-04T00:10:15.926Z,63.56
2018-03-04T00:16:20.931Z,64.33
2018-03-04T00:22:41.489Z,64.47
2018-03-04T00:28:45.976Z,65.17
2018-03-04T00:34:50.715Z,65.60
2018-03-04T00:40:55.382Z,65.99
2018-03-04T00:46:59.953Z,66.74
2018-03-04T00:53:05.341Z,66.98
2018-03-04T00:59:09.832Z,67.46
2018-03-04T01:05:15.209Z,67.90
2018-03-04T01:11:19.891Z,67.92
2018-03-04T01:17:24.581Z,68.05
2018-03-04T01:23:29.980Z,68.18
2018-03-04T01:29:34.540Z,68.29
2018-03-04T01:35:39.091Z,68.29
2018-03-04T01:41:43.652Z,68.56
2018-03-04T01:47:48.253Z,68.35
2018-03-04T01:53:54.333Z,68.21
2018-03-04T01:59:59.066Z,67.87
2018-03-04T02:06:03.871Z,67.51
2018-03-04T02:12:08.455Z,67.85
2018-03-04T02:18:13.810Z,68.45
2018-03-04T02:24:18.646Z,68.71
2018-03-04T02:30:23.790Z,68.74
2018-03-04T02:36:28.421Z,68.59
2018-03-04T02:42:33.747Z,68.64
2018-03-04T02:48:39.505Z,68.83
2018-03-04T02:54:44.865Z,69.27
2018-03-04T03:00:49.656Z,69.33
2018-03-04T03:06:54.367Z,69.66
2018-03-04T03:12:59.076Z,69.59
2018-03-04T03:19:03.817Z,69.83
2018-03-04T03:25:09.897Z,70.13
2018-03-04T03:31:14.467Z,70.28
2018-03-04T03:37:19.910Z,70.35
2018-03-04T03:43:24.594Z,70.19
2018-03-04T03:49:29.124Z,70.51
2018-03-04T03:55:34.422Z,70.34
2018-03-04T04:01:39.888Z,69.73
2018-03-04T04:07:44.582Z,69.52
2018-03-04T04:13:49.339Z,70.20
2018-03-04T04:19:54.022Z,70.27
2018-03-04T04:25:58.602Z,69.95
2018-03-04T04:32:03.171Z,69.62
2018-03-04T04:38:07.822Z,69.39
2018-03-04T04:44:12.418Z,69.49
2018-03-04T04:50:16.909Z,69.48
2018-03-04T04:56:22.445Z,69.47
2018-03-04T05:02:26.977Z,69.38
2018-03-04T05:08:31.557Z,69.16
2018-03-04T05:14:36.046Z,69.62
2018-03-04T05:20:40.564Z,69.49
2018-03-04T05:26:45.879Z,69.91
2018-03-04T05:32:51.553Z,70.15
2018-03-04T05:38:57.971Z,69.94
2018-03-04T05:45:02.654Z,69.72
2018-03-04T05:51:07.933Z,69.90
2018-03-04T05:57:12.488Z,69.28
2018-03-04T06:03:17.264Z,69.24
2018-03-04T06:09:22.052Z,68.45
2018-03-04T06:15:26.535Z,68.32
2018-03-04T06:21:31.945Z,68.12
2018-03-04T06:27:36.770Z,68.23
2018-03-04T06:33:41.490Z,68.07
2018-03-04T06:39:45.987Z,68.08
2018-03-04T06:45:51.739Z,68.00
2018-03-04T06:51:56.443Z,67.22
2018-03-04T06:58:01.926Z,66.26
2018-03-04T07:04:06.590Z,65.88
2018-03-04T07:10:11.147Z,65.58
2018-03-04T07:16:15.695Z,64.96
2018-03-04T07:22:21.027Z,63.74
2018-03-04T07:28:25.837Z,64.61
2018-03-04T07:34:30.515Z,63.20
2018-03-04T07:40:35.144Z,64.04
2018-03-04T07:46:39.782Z,63.43
2018-03-04T07:52:44.400Z,63.35
2018-03-04T07:58:49.089Z,63.00
2018-03-04T08:04:54.234Z,62.51
2018-03-04T08:10:58.768Z,63.14
2018-03-04T08:17:03.253Z,63.37
2018-03-04T08:23:07.760Z,62.65
2018-03-04T08:29:12.303Z,61.44
2018-03-04T08:35:16.896Z,60.62
2018-03-04T08:41:23.202Z,60.79
2018-03-04T08:47:28.152Z,60.33
2018-03-04T08:53:32.641Z,60.47
2018-03-04T08:59:37.893Z,60.76
2018-03-04T09:05:42.669Z,60.38
2018-03-04T09:11:47.196Z,60.94
2018-03-04T09:17:52.262Z,61.12
2018-03-04T09:23:56.937Z,61.40
2018-03-04T09:30:02.289Z,61.44
2018-03-04T09:36:06.804Z,61.12
2018-03-04T09:42:11.354Z,60.96
2018-03-04T09:48:15.927Z,59.69
2018-03-04T09:54:21.287Z,60.09
2018-03-04T10:00:25.939Z,59.63
2018-03-04T10:06:30.445Z,59.98
2018-03-04T10:12:35.269Z,60.28
2018-03-04T10:18:40.530Z,59.68
2018-03-04T10:24:45.018Z,58.97
2018-03-04T10:30:49.813Z,58.94
2018-03-04T10:36:54.374Z,57.52
2018-03-04T10:42:59.634Z,54.88
2018-03-04T10:49:04.548Z,52.98
2018-03-04T10:55:09.113Z,51.43
2018-03-04T11:01:19.526Z,51.49
2018-03-04T11:07:24.512Z,52.02
2018-03-04T11:13:29.169Z,52.67
2018-03-04T11:19:33.663Z,53.41
2018-03-04T11:25:38.150Z,53.97
2018-03-04T11:31:42.667Z,53.77
2018-03-04T11:37:47.939Z,52.87
2018-03-04T11:43:52.786Z,53.60
2018-03-04T11:49:57.439Z,54.17
2018-03-04T11:56:01.955Z,54.07
2018-03-04T12:02:06.444Z,53.53
2018-03-04T12:08:10.907Z,54.31
2018-03-04T12:14:15.397Z,53.75
2018-03-04T12:20:20.346Z,51.49
2018-03-04T12:26:25.651Z,52.23
2018-03-04T12:32:30.130Z,52.86
2018-03-04T12:38:34.599Z,53.04
2018-03-04T12:44:39.143Z,52.94
2018-03-04T12:50:43.817Z,54.85
2018-03-04T12:56:48.387Z,54.45
2018-03-04T13:02:52.944Z,54.43
2018-03-04T13:08:57.406Z,54.43
2018-03-04T13:15:02.039Z,53.76
2018-03-04T13:21:06.514Z,53.38
2018-03-04T13:27:12.003Z,51.73
2018-03-04T13:33:16.562Z,52.60
2018-03-04T13:39:21.158Z,53.29
2018-03-04T13:45:25.697Z,53.91
2018-03-04T13:51:30.212Z,54.21
2018-03-04T13:57:34.693Z,54.08
2018-03-04T14:03:39.191Z,52.16
2018-03-04T14:09:44.484Z,50.75
2018-03-04T14:15:50.344Z,49.03
2018-03-04T14:21:54.907Z,47.07
2018-03-04T14:27:59.402Z,41.88
2018-03-04T14:34:03.925Z,39.17
2018-03-04T14:40:09.283Z,36.02
2018-03-04T14:46:13.842Z,34.48
2018-03-04T14:52:18.431Z,34.95
2018-03-04T14:58:23.222Z,34.15
2018-03-04T15:04:27.746Z,34.43
2018-03-04T15:10:33.004Z,36.09
2018-03-04T15:16:37.670Z,36.56
2018-03-04T15:22:42.211Z,37.09
2018-03-04T15:28:46.697Z,38.27
2018-03-04T15:34:52.209Z,42.45
2018-03-04T15:40:56.819Z,42.08
2018-03-04T15:47:01.297Z,43.40
2018-03-04T15:53:05.995Z,44.55
2018-03-04T15:59:10.491Z,43.47
2018-03-04T16:05:15.058Z,42.91
2018-03-04T16:11:19.652Z,44.58
2018-03-04T16:17:25.023Z,47.24
2018-03-04T16:23:30.512Z,51.10
2018-03-04T16:29:35.000Z,54.57
2018-03-04T16:35:39.492Z,57.68
2018-03-04T16:41:44.693Z,60.42
2018-03-04T16:47:49.367Z,61.99
2018-03-04T16:53:54.043Z,63.21
2018-03-04T16:59:58.523Z,64.76
2018-03-04T17:06:03.024Z,65.99
2018-03-04T17:12:07.530Z,67.12
2018-03-04T17:18:12.039Z,68.27
2018-03-04T17:24:16.546Z,68.58
2018-03-04T17:30:21.194Z,70.16
2018-03-04T17:36:25.842Z,69.88
2018-03-04T17:42:30.435Z,70.17
2018-03-04T17:48:34.952Z,71.96
2018-03-04T17:54:39.521Z,71.97
2018-03-04T18:00:44.001Z,73.33
2018-03-04T18:06:49.289Z,73.04
2018-03-04T18:12:53.988Z,72.71
2018-03-04T18:18:58.917Z,72.40
2018-03-04T18:25:03.482Z,73.13
2018-03-04T18:31:08.905Z,73.73
2018-03-04T18:37:13.517Z,73.89
2018-03-04T18:43:18.080Z,74.04
2018-03-04T18:49:22.867Z,73.91
2018-03-04T18:55:27.414Z,75.39
2018-03-04T19:01:32.655Z,75.16
2018-03-04T19:07:37.183Z,75.12
2018-03-04T19:13:42.422Z,75.10
2018-03-04T19:19:46.929Z,74.99
2018-03-04T19:25:51.770Z,74.92
2018-03-04T19:31:56.271Z,75.17
2018-03-04T19:38:00.769Z,74.80
2018-03-04T19:44:05.379Z,74.62
2018-03-04T19:50:10.849Z,75.56
2018-03-04T19:56:15.622Z,76.20
2018-03-04T20:02:20.407Z,76.06
2018-03-04T20:08:24.972Z,75.66
2018-03-04T20:14:30.295Z,76.19
2018-03-04T20:20:34.808Z,75.96
2018-03-04T20:26:40.467Z,75.62
2018-03-04T20:32:44.966Z,75.56
2018-03-04T20:38:49.429Z,75.25
2018-03-04T20:44:54.009Z,75.46
2018-03-04T20:50:58.569Z,75.07
2018-03-04T20:57:03.047Z,75.12
2018-03-04T21:03:07.578Z,75.08
2018-03-04T21:09:13.327Z,74.88
2018-03-04T21:15:17.827Z,74.97
2018-03-04T21:21:22.688Z,74.67
2018-03-04T21:27:27.189Z,74.82
2018-03-04T21:33:32.433Z,74.79
2018-03-04T21:39:36.909Z,74.71
2018-03-04T21:45:41.504Z,74.55
2018-03-04T21:51:46.015Z,74.49
2018-03-04T21:57:50.799Z,75.02
2018-03-04T22:03:55.679Z,75.53
2018-03-04T22:10:00.187Z,75.61
2018-03-04T22:16:05.446Z,76.51
2018-03-04T22:22:10.026Z,75.31
2018-03-04T22:28:14.550Z,74.08
2018-03-04T22:34:19.200Z,74.44
2018-03-04T22:40:23.819Z,74.38
2018-03-04T22:46:28.280Z,73.83
2018-03-04T22:52:32.712Z,73.97
2018-03-04T22:58:37.249Z,74.42
2018-03-04T23:04:42.692Z,74.45
2018-03-04T23:10:47.177Z,74.59
2018-03-04T23:16:51.863Z,75.06
2018-03-04T23:22:56.367Z,74.83
2018-03-04T23:29:00.792Z,75.06
2018-03-04T23:35:06.039Z,74.87
2018-03-04T23:41:10.515Z,74.55
2018-03-04T23:47:15.003Z,73.63
2018-03-04T23:53:19.810Z,73.17
2018-03-04T23:59:24.591Z,73.22
